Time;durP1;ratioP1;P1;durP2;ratioP2;P2;SDS_P1;SDS_P2;PMS_P1;PMS_P2;Temp;Humidity;BMP_temperature;BMP_pressure;BME280_temperature;BME280_humidity;BME280_pressure;Samples;Min_cycle;Max_cycle;Signal;HPM_P1;HPM_P2
2022/08/16 00:02:08;;;;;;;1.60;1.60;;;25.40;63.70;;;;;;5067965;28;43959;-73
2022/08/16 00:04:40;;;;;;;1.90;1.80;;;25.50;63.20;;;;;;5066960;28;43956;-74
2022/08/16 00:07:09;;;;;;;1.47;1.47;;;25.60;63.10;;;;;;5066177;28;44593;-74
2022/08/16 00:09:37;;;;;;;1.60;1.60;;;25.60;63.00;;;;;;5066775;28;43840;-74
2022/08/16 00:12:10;;;;;;;1.90;1.90;;;25.50;63.70;;;;;;5067899;28;44003;-75
2022/08/16 00:14:44;;;;;;;2.23;1.60;;;25.50;63.60;;;;;;5067214;28;43970;-73
2022/08/16 00:17:13;;;;;;;1.83;1.83;;;25.50;63.70;;;;;;5066723;28;43995;-73
2022/08/16 00:19:46;;;;;;;1.80;1.80;;;25.40;63.50;;;;;;5066849;28;43991;-74
2022/08/16 00:22:20;;;;;;;1.70;1.70;;;25.40;63.20;;;;;;5067149;28;43969;-75
2022/08/16 00:24:52;;;;;;;1.80;1.80;;;25.30;63.90;;;;;;5067227;28;44138;-74
2022/08/16 00:27:22;;;;;;;1.80;1.80;;;25.30;64.10;;;;;;5060469;28;44003;-73
2022/08/16 00:29:51;;;;;;;1.90;1.90;;;25.40;64.50;;;;;;5065298;28;43371;-74
2022/08/16 00:32:40;;;;;;;1.97;1.97;;;25.40;63.60;;;;;;5066802;28;44002;-74
2022/08/16 00:35:09;;;;;;;1.70;1.70;;;25.50;63.60;;;;;;5067173;28;43971;-74
2022/08/16 00:37:43;;;;;;;1.70;1.70;;;25.40;63.50;;;;;;5066369;28;43884;-74
2022/08/16 00:40:27;;;;;;;2.20;2.00;;;25.40;63.90;;;;;;5063967;28;43442;-73
2022/08/16 00:43:05;;;;;;;1.67;1.67;;;25.40;63.80;;;;;;5065699;28;43909;-73
2022/08/16 00:45:41;;;;;;;1.90;1.90;;;25.40;63.80;;;;;;5066505;28;43861;-73
2022/08/16 00:48:28;;;;;;;1.63;1.63;;;25.30;63.40;;;;;;5066298;28;44003;-73
2022/08/16 00:50:59;;;;;;;1.70;1.70;;;25.30;64.20;;;;;;5065013;28;44177;-73
2022/08/16 00:53:28;;;;;;;1.80;1.80;;;25.30;64.10;;;;;;5065277;28;43593;-74
2022/08/16 00:56:00;;;;;;;1.70;1.70;;;25.30;63.80;;;;;;5066490;28;44027;-74
2022/08/16 00:58:35;;;;;;;1.70;1.70;;;25.30;63.80;;;;;;5065808;28;43791;-73
2022/08/16 01:01:03;;;;;;;1.70;1.63;;;25.20;64.40;;;;;;5060855;28;43838;-73
2022/08/16 01:03:36;;;;;;;1.70;1.70;;;25.30;64.30;;;;;;5076180;28;44004;-71
2022/08/16 01:06:09;;;;;;;1.50;1.50;;;25.30;63.80;;;;;;5064727;28;45465;-73
2022/08/16 01:08:57;;;;;;;1.77;1.77;;;25.50;63.60;;;;;;5065964;28;44095;-74
2022/08/16 01:11:27;;;;;;;1.90;1.80;;;25.50;63.40;;;;;;5065579;28;43881;-72
2022/08/16 01:14:00;;;;;;;1.67;1.67;;;25.50;64.10;;;;;;5066613;28;43958;-72
2022/08/16 01:16:29;;;;;;;1.80;1.80;;;25.40;63.50;;;;;;5065651;28;44044;-73
2022/08/16 01:19:00;;;;;;;1.70;1.70;;;25.40;63.90;;;;;;5063766;28;44528;-73
2022/08/16 01:21:34;;;;;;;1.60;1.60;;;25.40;63.90;;;;;;5063861;28;44046;-74
2022/08/16 01:24:24;;;;;;;1.80;1.70;;;25.30;63.80;;;;;;5064740;28;44006;-73
2022/08/16 01:27:16;;;;;;;1.63;1.63;;;25.30;63.80;;;;;;5064149;28;45366;-74
2022/08/16 01:29:46;;;;;;;1.77;1.77;;;25.30;64.40;;;;;;5065620;28;44004;-73
2022/08/16 01:32:29;;;;;;;1.60;1.60;;;25.30;64.40;;;;;;5065431;28;43378;-73
2022/08/16 01:35:01;;;;;;;1.80;1.80;;;25.20;63.70;;;;;;5066302;28;43871;-73
2022/08/16 01:37:30;;;;;;;1.77;1.77;;;25.20;64.50;;;;;;5063501;28;44044;-73
2022/08/16 01:40:06;;;;;;;1.60;1.60;;;25.20;64.60;;;;;;5064092;28;45960;-73
2022/08/16 01:42:35;;;;;;;1.90;1.90;;;25.30;64.30;;;;;;5064770;28;44035;-73
2022/08/16 01:45:03;;;;;;;1.77;1.77;;;25.40;63.80;;;;;;5064506;28;44110;-73
2022/08/16 01:47:31;;;;;;;1.87;1.87;;;25.50;63.50;;;;;;5063304;28;45443;-73
2022/08/16 01:50:00;;;;;;;1.80;1.80;;;25.50;63.30;;;;;;5064211;28;44377;-72
2022/08/16 01:52:48;;;;;;;1.80;1.80;;;25.50;63.30;;;;;;5064692;28;44004;-73
2022/08/16 01:55:31;;;;;;;1.70;1.70;;;25.50;63.30;;;;;;5063165;28;43430;-74
2022/08/16 01:58:03;;;;;;;1.80;1.80;;;25.40;63.90;;;;;;5067556;28;43823;-72
2022/08/16 02:00:31;;;;;;;1.50;1.50;;;25.40;63.90;;;;;;5067223;28;43767;-73
2022/08/16 02:03:01;;;;;;;1.67;1.67;;;25.30;63.70;;;;;;5069365;28;44035;-73
2022/08/16 02:05:29;;;;;;;1.50;1.50;;;25.30;63.50;;;;;;5067733;28;43492;-73
2022/08/16 02:08:01;;;;;;;1.60;1.60;;;25.30;64.30;;;;;;5067607;28;45805;-72
2022/08/16 02:10:31;;;;;;;1.50;1.50;;;25.30;64.40;;;;;;5067090;28;44013;-73
2022/08/16 02:13:01;;;;;;;1.70;1.70;;;25.20;64.00;;;;;;5067789;28;44106;-73
2022/08/16 02:15:30;;;;;;;1.80;1.80;;;25.20;63.70;;;;;;5067445;28;43943;-74
2022/08/16 02:18:10;;;;;;;1.70;1.70;;;25.20;64.60;;;;;;5069116;28;44031;-73
2022/08/16 02:20:41;;;;;;;1.67;1.67;;;25.20;64.50;;;;;;5068420;28;44277;-73
2022/08/16 02:23:13;;;;;;;1.80;1.80;;;25.30;64.10;;;;;;5060545;28;44009;-73
2022/08/16 02:25:46;;;;;;;1.73;1.73;;;25.40;63.60;;;;;;5067146;28;43951;-73
2022/08/16 02:28:20;;;;;;;1.70;1.70;;;25.50;63.20;;;;;;5068755;28;44748;-74
2022/08/16 02:30:50;;;;;;;1.80;1.80;;;25.60;63.30;;;;;;5066941;28;44495;-73
2022/08/16 02:33:19;;;;;;;1.80;1.80;;;25.50;63.20;;;;;;5067043;28;44066;-73
2022/08/16 02:35:53;;;;;;;1.70;1.70;;;25.50;63.30;;;;;;5067406;28;43396;-73
2022/08/16 02:38:28;;;;;;;1.60;1.60;;;25.40;63.70;;;;;;5066368;28;45375;-73
2022/08/16 02:41:03;;;;;;;1.60;1.60;;;25.40;63.80;;;;;;5066490;28;44091;-73
2022/08/16 02:43:38;;;;;;;1.60;1.60;;;25.30;63.50;;;;;;5066916;28;44284;-73
2022/08/16 02:46:08;;;;;;;1.60;1.60;;;25.30;63.70;;;;;;5067501;28;43955;-73
2022/08/16 02:48:38;;;;;;;1.77;1.77;;;25.30;64.30;;;;;;5066422;28;45435;-73
2022/08/16 02:51:16;;;;;;;1.90;1.80;;;25.20;64.10;;;;;;5066517;28;45535;-73
2022/08/16 02:53:46;;;;;;;1.80;1.80;;;25.20;63.90;;;;;;5066470;28;43897;-73
2022/08/16 02:56:17;;;;;;;1.80;1.80;;;25.20;64.20;;;;;;5067008;28;43992;-73
2022/08/16 02:58:46;;;;;;;1.60;1.60;;;25.20;64.70;;;;;;5066034;28;45996;-74
2022/08/16 03:01:15;;;;;;;1.77;1.77;;;25.20;64.60;;;;;;5066420;28;44316;-73
2022/08/16 03:04:05;;;;;;;1.73;1.73;;;25.20;64.20;;;;;;5066037;28;43941;-74
2022/08/16 03:06:54;;;;;;;2.03;1.90;;;25.10;64.00;;;;;;5067135;28;43929;-73
2022/08/16 03:09:44;;;;;;;1.87;1.87;;;25.10;64.70;;;;;;5066955;28;44031;-72
2022/08/16 03:12:18;;;;;;;1.80;1.70;;;25.20;64.50;;;;;;5066498;28;44410;-73
2022/08/16 03:14:47;;;;;;;2.00;1.90;;;25.30;64.00;;;;;;5066300;28;44061;-72
2022/08/16 03:17:17;;;;;;;1.90;1.90;;;25.40;63.60;;;;;;5066606;28;43942;-73
2022/08/16 03:19:49;;;;;;;2.10;2.00;;;25.50;63.30;;;;;;5065827;28;44001;-73
2022/08/16 03:22:32;;;;;;;2.20;2.10;;;25.50;63.20;;;;;;5066023;28;44561;-72
2022/08/16 03:25:08;;;;;;;2.30;2.20;;;25.50;63.20;;;;;;5066356;28;43936;-74
2022/08/16 03:27:39;;;;;;;3.43;2.50;;;25.40;63.50;;;;;;5066671;28;43426;-73
2022/08/16 03:30:15;;;;;;;2.73;2.50;;;25.40;63.80;;;;;;5066040;28;45728;-73
2022/08/16 03:33:00;;;;;;;3.13;2.83;;;25.40;63.80;;;;;;5065937;28;44022;-73
2022/08/16 03:35:35;;;;;;;8.00;3.43;;;25.30;63.30;;;;;;5067432;28;43782;-73
2022/08/16 03:38:18;;;;;;;8.50;3.87;;;25.30;64.20;;;;;;5048577;28;43557;-74
2022/08/16 03:41:08;;;;;;;6.07;3.50;;;25.30;64.20;;;;;;5065546;28;45976;-73
2022/08/16 03:43:55;;;;;;;9.43;4.17;;;25.30;63.90;;;;;;5065766;28;44048;-73
2022/08/16 03:46:28;;;;;;;7.60;4.33;;;25.20;64.20;;;;;;5066964;28;43942;-73
2022/08/16 03:49:19;;;;;;;8.83;4.53;;;25.20;64.60;;;;;;5066831;28;43916;-74
2022/08/16 03:51:51;;;;;;;8.67;4.77;;;25.20;64.30;;;;;;5065784;28;43990;-73
2022/08/16 03:54:22;;;;;;;12.17;5.30;;;25.30;63.80;;;;;;5066096;28;43929;-73
2022/08/16 03:56:52;;;;;;;10.67;5.10;;;25.50;63.40;;;;;;5066441;28;43988;-74
2022/08/16 03:59:27;;;;;;;16.53;5.93;;;25.50;63.30;;;;;;5065819;28;44250;-72
2022/08/16 04:01:57;;;;;;;12.57;5.90;;;25.50;63.30;;;;;;5059721;28;45008;-73
2022/08/16 04:04:28;;;;;;;11.20;6.10;;;25.40;64.00;;;;;;5065817;28;44009;-73
2022/08/16 04:07:02;;;;;;;14.53;6.07;;;25.40;63.80;;;;;;5065805;28;43893;-73
2022/08/16 04:09:33;;;;;;;13.57;6.07;;;25.30;63.80;;;;;;5065372;28;43902;-73
2022/08/16 04:12:03;;;;;;;13.07;6.17;;;25.30;63.50;;;;;;5065548;28;44040;-74
2022/08/16 04:14:41;;;;;;;15.27;6.50;;;25.30;63.80;;;;;;5064961;28;44410;-73
2022/08/16 04:17:14;;;;;;;15.17;6.80;;;25.20;64.40;;;;;;5064711;28;43365;-72
2022/08/16 04:19:43;;;;;;;11.13;6.10;;;25.20;64.30;;;;;;5065469;28;43442;-73
2022/08/16 04:22:18;;;;;;;16.57;6.60;;;25.20;63.80;;;;;;5065374;28;44305;-73
2022/08/16 04:24:51;;;;;;;15.07;6.67;;;25.10;64.30;;;;;;5064686;28;44156;-73
2022/08/16 04:27:23;;;;;;;13.27;6.90;;;25.10;64.60;;;;;;5065505;28;43422;-73
2022/08/16 04:29:57;;;;;;;18.47;7.40;;;25.20;64.40;;;;;;5061750;28;43467;-73
2022/08/16 04:32:36;;;;;;;15.93;7.00;;;25.30;63.80;;;;;;5065206;28;46213;-74
2022/08/16 04:35:08;;;;;;;14.73;7.23;;;25.40;63.40;;;;;;5065745;28;44068;-73
2022/08/16 04:37:43;;;;;;;18.20;7.23;;;25.50;64.10;;;;;;5065589;28;43905;-73
2022/08/16 04:40:18;;;;;;;17.87;8.03;;;25.50;63.70;;;;;;5065384;28;44110;-73
2022/08/16 04:42:49;;;;;;;18.53;7.70;;;25.40;63.40;;;;;;5065451;28;44164;-73
2022/08/16 04:45:19;;;;;;;17.70;8.40;;;25.30;63.80;;;;;;5065292;28;44188;-72
2022/08/16 04:48:09;;;;;;;18.07;7.60;;;25.30;63.80;;;;;;5065738;28;44107;-72
2022/08/16 04:50:46;;;;;;;13.03;7.07;;;25.30;63.50;;;;;;5065748;28;44048;-73
2022/08/16 04:53:17;;;;;;;16.90;7.53;;;25.20;64.00;;;;;;5065150;28;45668;-73
2022/08/16 04:55:48;;;;;;;16.50;7.23;;;25.20;64.30;;;;;;5065116;28;43956;-74
2022/08/16 04:58:22;;;;;;;14.17;7.27;;;25.20;64.30;;;;;;5065277;28;44139;-73
2022/08/16 05:01:11;;;;;;;16.83;7.47;;;25.20;63.90;;;;;;5065718;28;44076;-72
2022/08/16 05:03:42;;;;;;;16.93;7.60;;;25.10;64.40;;;;;;5064822;28;45044;-73
2022/08/16 05:06:33;;;;;;;16.77;7.97;;;25.10;64.70;;;;;;5064889;28;44008;-73
2022/08/16 05:09:36;;;;;;;16.83;7.80;;;25.20;64.40;;;;;;5067953;28;43395;-72
2022/08/16 05:12:06;;;;;;;16.50;7.70;;;25.30;63.70;;;;;;5065376;28;44086;-73
2022/08/16 05:14:38;;;;;;;16.00;7.07;;;25.40;63.60;;;;;;5065083;28;44064;-71
2022/08/16 05:17:18;;;;;;;14.87;7.50;;;25.40;63.50;;;;;;5065366;28;44095;-73
2022/08/16 05:19:52;;;;;;;14.23;6.87;;;25.40;63.30;;;;;;5065077;28;44089;-74
2022/08/16 05:22:27;;;;;;;16.77;7.87;;;25.30;63.80;;;;;;5052339;28;43429;-73
2022/08/16 05:25:00;;;;;;;15.00;7.17;;;25.30;64.00;;;;;;5059030;28;43847;-74
2022/08/16 05:27:37;;;;;;;12.27;7.30;;;25.30;63.90;;;;;;5064640;28;43536;-73
2022/08/16 05:30:12;;;;;;;13.27;6.87;;;25.30;63.50;;;;;;5065419;28;43374;-73
2022/08/16 05:33:02;;;;;;;13.77;7.50;;;25.20;64.90;;;;;;5065247;28;43988;-73
2022/08/16 05:35:33;;;;;;;14.50;7.33;;;25.20;64.30;;;;;;5064421;28;44022;-73
2022/08/16 05:38:08;;;;;;;13.13;6.90;;;25.20;63.80;;;;;;5058830;28;44196;-73
2022/08/16 05:40:59;;;;;;;10.97;6.50;;;25.30;63.90;;;;;;5064568;28;44071;-72
2022/08/16 05:43:35;;;;;;;11.67;6.90;;;25.30;63.60;;;;;;5064866;28;43966;-74
2022/08/16 05:46:23;;;;;;;12.80;6.57;;;25.20;63.90;;;;;;5064772;28;44178;-72
2022/08/16 05:49:00;;;;;;;10.53;6.80;;;25.20;64.00;;;;;;5064897;28;43947;-73
2022/08/16 05:51:38;;;;;;;10.57;6.40;;;25.20;64.10;;;;;;5064682;28;43752;-73
2022/08/16 05:54:12;;;;;;;9.17;6.27;;;25.20;63.70;;;;;;5065444;28;43910;-73
2022/08/16 05:56:41;;;;;;;10.70;6.47;;;25.10;63.80;;;;;;5064876;28;45570;-73
2022/08/16 05:59:10;;;;;;;11.07;6.40;;;25.10;64.20;;;;;;5066362;28;44079;-72
2022/08/16 06:01:39;;;;;;;7.80;6.33;;;25.10;64.30;;;;;;5064645;28;44105;-73
2022/08/16 06:04:10;;;;;;;8.87;6.17;;;25.10;63.70;;;;;;5065066;28;44272;-73
2022/08/16 06:06:58;;;;;;;12.20;6.70;;;25.10;63.90;;;;;;5064627;28;46598;-73
2022/08/16 06:09:30;;;;;;;10.77;5.90;;;25.10;64.50;;;;;;5064134;28;44698;-73
2022/08/16 06:12:12;;;;;;;10.30;6.10;;;25.10;64.00;;;;;;5064843;28;44030;-73
2022/08/16 06:15:00;;;;;;;11.37;6.33;;;25.30;63.80;;;;;;5064619;28;43946;-73
2022/08/16 06:17:31;;;;;;;9.37;6.27;;;25.40;63.20;;;;;;5064094;28;43824;-73
2022/08/16 06:20:14;;;;;;;9.37;6.13;;;25.50;63.20;;;;;;5059774;28;44618;-73
2022/08/16 06:22:45;;;;;;;7.83;6.00;;;25.50;63.10;;;;;;5063626;28;43466;-73
2022/08/16 06:25:30;;;;;;;7.20;5.50;;;25.40;63.20;;;;;;5064224;28;43990;-73
2022/08/16 06:28:07;;;;;;;8.20;5.57;;;25.30;63.40;;;;;;5064162;28;44051;-73
2022/08/16 06:30:38;;;;;;;6.83;5.43;;;25.30;63.50;;;;;;5064102;28;44062;-73
2022/08/16 06:33:13;;;;;;;6.07;4.67;;;25.30;63.20;;;;;;5063830;28;43943;-73
2022/08/16 06:35:51;;;;;;;6.63;5.27;;;25.20;63.70;;;;;;5064617;28;43447;-72
2022/08/16 06:38:29;;;;;;;7.37;5.33;;;25.10;63.90;;;;;;5063604;28;43952;-73
2022/08/16 06:41:07;;;;;;;6.53;5.70;;;25.20;63.90;;;;;;5066927;28;43976;-74
2022/08/16 06:43:41;;;;;;;5.73;5.13;;;25.10;63.40;;;;;;5067646;28;44033;-72
2022/08/16 06:46:23;;;;;;;5.83;4.83;;;25.10;64.00;;;;;;5054452;28;43892;-73
2022/08/16 06:49:00;;;;;;;6.10;5.20;;;25.10;64.30;;;;;;5068948;28;43934;-73
2022/08/16 06:51:33;;;;;;;5.37;4.87;;;25.10;64.00;;;;;;5066982;28;44683;-72
2022/08/16 06:54:17;;;;;;;7.37;5.57;;;25.20;63.70;;;;;;5067356;28;44519;-73
2022/08/16 06:56:45;;;;;;;5.37;4.93;;;25.30;63.20;;;;;;5067912;28;43501;-74
2022/08/16 06:59:14;;;;;;;5.03;4.53;;;25.40;63.20;;;;;;5067058;28;44036;-73
2022/08/16 07:01:48;;;;;;;5.10;4.70;;;25.40;63.10;;;;;;5066956;28;44030;-73
2022/08/16 07:04:21;;;;;;;4.87;4.47;;;25.30;63.30;;;;;;5067214;28;43971;-73
2022/08/16 07:07:05;;;;;;;6.33;4.93;;;25.30;63.60;;;;;;5079849;28;43545;-73
2022/08/16 07:09:37;;;;;;;5.30;4.80;;;25.30;63.80;;;;;;5067324;28;44052;-73
2022/08/16 07:12:06;;;;;;;5.70;4.70;;;25.20;63.30;;;;;;5066924;28;43350;-73
2022/08/16 07:14:38;;;;;;;5.43;4.93;;;25.20;63.70;;;;;;5067043;28;44129;-73
2022/08/16 07:17:09;;;;;;;5.83;4.93;;;25.10;65.00;;;;;;5067511;28;44214;-72
2022/08/16 07:19:45;;;;;;;4.97;4.57;;;25.10;64.20;;;;;;5066530;28;45832;-74
2022/08/16 07:22:56;;;;;;;4.83;4.43;;;25.10;63.70;;;;;;5066790;28;44958;-73
2022/08/16 07:25:39;;;;;;;5.37;4.87;;;25.10;64.20;;;;;;5066723;28;44031;-72
2022/08/16 07:28:11;;;;;;;5.17;4.67;;;25.10;64.60;;;;;;5067590;28;44045;-73
2022/08/16 07:30:52;;;;;;;5.10;4.43;;;25.10;64.00;;;;;;5061864;28;44022;-72
2022/08/16 07:33:29;;;;;;;4.53;4.10;;;25.20;63.60;;;;;;5066379;28;43481;-73
2022/08/16 07:36:18;;;;;;;4.67;4.37;;;25.30;63.10;;;;;;5066838;28;43433;-73
2022/08/16 07:38:51;;;;;;;4.60;4.20;;;25.40;63.00;;;;;;5067142;28;44022;-73
2022/08/16 07:41:20;;;;;;;5.00;4.53;;;25.40;62.90;;;;;;5066083;28;45059;-73
2022/08/16 07:43:55;;;;;;;4.90;4.50;;;25.30;63.20;;;;;;5060872;28;44019;-73
2022/08/16 07:46:25;;;;;;;4.83;4.43;;;25.30;63.50;;;;;;5066158;28;44114;-72
2022/08/16 07:49:19;;;;;;;4.23;3.93;;;25.30;63.60;;;;;;5066762;28;44055;-73
2022/08/16 07:51:47;;;;;;;4.80;4.50;;;25.20;63.20;;;;;;5065959;28;44092;-73
2022/08/16 07:54:18;;;;;;;5.13;4.77;;;25.20;63.70;;;;;;5066180;28;44074;-74
2022/08/16 07:56:52;;;;;;;4.33;4.13;;;25.10;64.10;;;;;;5066442;28;43931;-73
2022/08/16 07:59:22;;;;;;;4.10;3.90;;;25.10;64.10;;;;;;5066783;28;43512;-73
2022/08/16 08:01:51;;;;;;;4.37;4.17;;;25.10;63.60;;;;;;5066335;28;44027;-72
2022/08/16 08:04:21;;;;;;;4.63;4.33;;;25.10;63.60;;;;;;5059939;28;44033;-73
2022/08/16 08:06:51;;;;;;;4.57;4.30;;;25.10;64.50;;;;;;5076856;28;43885;-73
2022/08/16 08:09:20;;;;;;;4.83;4.53;;;25.10;64.40;;;;;;5064144;28;43994;-73
2022/08/16 08:11:50;;;;;;;4.97;4.77;;;25.10;64.00;;;;;;5066011;28;43979;-73
2022/08/16 08:14:33;;;;;;;4.80;4.43;;;25.30;63.70;;;;;;5065590;28;45716;-73
2022/08/16 08:17:03;;;;;;;4.43;4.13;;;25.40;63.60;;;;;;5066356;28;44051;-73
2022/08/16 08:19:36;;;;;;;5.10;4.60;;;25.40;63.30;;;;;;5067785;28;43893;-73
2022/08/16 08:22:09;;;;;;;4.87;4.57;;;25.30;63.10;;;;;;5066005;28;44064;-73
2022/08/16 08:24:54;;;;;;;4.30;4.10;;;25.30;63.50;;;;;;5066149;28;44064;-72
2022/08/16 08:27:31;;;;;;;4.50;4.20;;;25.30;63.60;;;;;;5060587;28;43375;-72
2022/08/16 08:30:01;;;;;;;4.50;4.10;;;25.20;64.20;;;;;;5066303;28;43943;-72
2022/08/16 08:32:52;;;;;;;4.40;4.00;;;25.20;63.20;;;;;;5065748;28;45787;-72
2022/08/16 08:35:34;;;;;;;4.00;3.90;;;25.10;64.20;;;;;;5065499;28;44007;-71
2022/08/16 08:38:06;;;;;;;4.57;4.27;;;25.10;64.40;;;;;;5065721;28;43805;-72
2022/08/16 08:40:39;;;;;;;4.33;4.00;;;25.10;64.10;;;;;;5065598;28;44069;-72
2022/08/16 08:43:11;;;;;;;4.63;4.40;;;25.10;63.70;;;;;;5066012;28;43944;-72
2022/08/16 08:45:56;;;;;;;4.70;4.17;;;25.00;64.40;;;;;;5065552;28;44455;-71
2022/08/16 08:48:26;;;;;;;4.20;3.90;;;25.00;64.30;;;;;;5065262;28;44055;-72
2022/08/16 08:51:05;;;;;;;4.37;4.07;;;25.10;64.00;;;;;;5066025;28;44127;-72
2022/08/16 08:53:42;;;;;;;4.90;4.60;;;25.20;63.60;;;;;;5065279;28;44059;-72
2022/08/16 08:56:12;;;;;;;3.93;3.83;;;25.30;63.40;;;;;;5059074;28;45444;-72
2022/08/16 08:59:00;;;;;;;4.67;4.33;;;25.30;63.40;;;;;;5065645;28;43332;-72
2022/08/16 09:01:40;;;;;;;4.83;4.40;;;25.30;63.00;;;;;;5065568;28;44051;-72
2022/08/16 09:04:10;;;;;;;4.17;3.97;;;25.20;64.00;;;;;;5065169;28;45654;-72
2022/08/16 09:06:46;;;;;;;3.93;3.83;;;25.20;64.00;;;;;;5065117;28;43908;-72
2022/08/16 09:09:16;;;;;;;3.90;3.70;;;25.10;63.60;;;;;;5065255;28;44067;-72
2022/08/16 09:11:51;;;;;;;3.90;3.70;;;25.10;63.70;;;;;;5065441;28;43438;-72
2022/08/16 09:14:37;;;;;;;4.07;3.80;;;25.10;64.50;;;;;;5065141;28;44051;-73
2022/08/16 09:17:05;;;;;;;4.30;4.10;;;25.10;64.30;;;;;;5065056;28;43964;-72
2022/08/16 09:19:48;;;;;;;3.90;3.70;;;25.00;63.80;;;;;;5065187;28;44022;-73
2022/08/16 09:22:22;;;;;;;4.03;3.93;;;25.00;64.10;;;;;;5065400;28;43467;-73
2022/08/16 09:24:51;;;;;;;4.00;3.80;;;25.00;64.70;;;;;;5064808;28;43924;-74
2022/08/16 09:27:41;;;;;;;4.17;3.87;;;25.00;64.60;;;;;;5064646;28;44633;-72
2022/08/16 09:30:25;;;;;;;3.73;3.63;;;25.10;64.00;;;;;;5064617;28;43462;-72
2022/08/16 09:33:09;;;;;;;3.80;3.70;;;25.20;63.70;;;;;;5065502;28;44062;-72
2022/08/16 09:35:38;;;;;;;3.90;3.70;;;25.30;63.50;;;;;;5066284;28;44764;-72
2022/08/16 09:38:12;;;;;;;4.13;3.93;;;25.30;63.30;;;;;;5066337;28;43944;-72
2022/08/16 09:40:59;;;;;;;3.90;3.70;;;25.20;63.30;;;;;;5066092;28;44268;-72
2022/08/16 09:43:29;;;;;;;3.60;3.50;;;25.20;64.00;;;;;;5066648;28;44004;-72
2022/08/16 09:46:17;;;;;;;4.07;3.80;;;25.10;63.90;;;;;;5066176;28;44018;-72
2022/08/16 09:49:05;;;;;;;3.70;3.60;;;25.10;63.40;;;;;;5062643;28;43889;-73
2022/08/16 09:51:35;;;;;;;3.53;3.43;;;25.10;64.00;;;;;;5065700;28;43362;-72
2022/08/16 09:54:04;;;;;;;3.33;3.23;;;25.10;64.50;;;;;;5066587;28;43409;-72
2022/08/16 09:56:34;;;;;;;3.80;3.70;;;25.00;64.30;;;;;;5064170;28;47222;-72
2022/08/16 09:59:06;;;;;;;3.60;3.50;;;25.00;63.80;;;;;;5066085;28;44109;-72
2022/08/16 10:01:35;;;;;;;3.70;3.60;;;25.00;64.00;;;;;;5065881;28;44007;-72
2022/08/16 10:04:05;;;;;;;3.70;3.60;;;25.00;64.60;;;;;;5066432;28;44157;-72
2022/08/16 10:06:53;;;;;;;3.83;3.63;;;25.00;64.60;;;;;;5064543;28;45627;-72
2022/08/16 10:09:27;;;;;;;3.93;3.83;;;25.00;63.90;;;;;;5065490;28;43371;-72
2022/08/16 10:15:11;;;;;;;3.70;3.60;;;24.90;64.70;;;;;;5068781;28;43975;-72
2022/08/16 10:17:44;;;;;;;3.70;3.60;;;25.00;64.50;;;;;;5069030;28;43998;-71
2022/08/16 10:20:29;;;;;;;3.97;3.87;;;25.10;64.10;;;;;;5069251;28;44023;-73
2022/08/16 10:22:57;;;;;;;3.63;3.53;;;25.20;63.50;;;;;;5067424;28;44049;-73
2022/08/16 10:25:33;;;;;;;3.50;3.40;;;25.30;63.40;;;;;;5069060;28;44012;-74
2022/08/16 10:28:21;;;;;;;3.90;3.70;;;25.30;63.20;;;;;;5068100;28;46340;-73
2022/08/16 10:31:04;;;;;;;3.73;3.63;;;25.30;63.00;;;;;;5069219;28;43426;-73
2022/08/16 10:33:33;;;;;;;3.67;3.57;;;25.20;63.70;;;;;;5068146;28;43923;-73
2022/08/16 10:36:07;;;;;;;3.20;3.20;;;25.20;63.60;;;;;;5068344;28;44032;-73
2022/08/16 10:38:39;;;;;;;3.50;3.30;;;25.10;63.30;;;;;;5068924;28;45129;-73
2022/08/16 10:41:09;;;;;;;3.43;3.33;;;25.10;64.00;;;;;;5069046;28;43399;-73
2022/08/16 10:43:44;;;;;;;3.40;3.20;;;25.10;64.10;;;;;;5068864;28;43359;-73
2022/08/16 10:46:18;;;;;;;3.30;3.20;;;25.00;64.00;;;;;;5069755;28;43920;-73
2022/08/16 10:49:06;;;;;;;3.30;3.20;;;25.00;63.60;;;;;;5068934;28;43983;-72
2022/08/16 10:51:37;;;;;;;3.50;3.30;;;25.00;63.30;;;;;;5067973;28;43433;-73
2022/08/16 10:54:25;;;;;;;3.37;3.27;;;25.00;64.40;;;;;;5069127;28;43975;-72
2022/08/16 10:56:57;;;;;;;3.47;3.37;;;25.00;64.30;;;;;;5069538;28;43841;-72
2022/08/16 10:59:26;;;;;;;3.30;3.20;;;25.00;63.80;;;;;;5062300;28;43979;-72
2022/08/16 11:02:15;;;;;;;3.27;3.17;;;25.00;63.50;;;;;;5063705;28;44451;-72
2022/08/16 11:05:03;;;;;;;3.30;3.20;;;25.00;64.60;;;;;;5069077;28;44094;-72
2022/08/16 11:07:33;;;;;;;3.20;3.10;;;24.90;64.50;;;;;;5067143;28;43483;-74
2022/08/16 11:10:12;;;;;;;2.90;2.90;;;25.00;64.40;;;;;;5068687;28;44370;-71
2022/08/16 11:13:01;;;;;;;3.10;3.00;;;25.10;63.90;;;;;;5067143;28;44781;-72
2022/08/16 11:15:48;;;;;;;3.13;3.03;;;25.20;63.70;;;;;;5068195;28;43976;-71
2022/08/16 11:18:24;;;;;;;3.30;3.20;;;25.30;63.50;;;;;;5067268;28;44019;-72
2022/08/16 11:21:13;;;;;;;3.53;3.23;;;25.20;63.10;;;;;;5066537;28;46719;-72
2022/08/16 11:23:56;;;;;;;3.33;3.20;;;25.10;63.60;;;;;;5068516;28;44037;-72
2022/08/16 11:26:26;;;;;;;3.17;2.97;;;25.10;63.80;;;;;;5067844;28;44052;-73
2022/08/16 11:28:56;;;;;;;3.10;2.90;;;25.10;63.40;;;;;;5068702;28;43597;-71
2022/08/16 11:31:41;;;;;;;4.77;3.43;;;25.10;64.20;;;;;;5068145;28;44130;-72
2022/08/16 11:34:21;;;;;;;3.10;2.90;;;25.00;64.40;;;;;;5068242;28;44034;-72
2022/08/16 11:36:52;;;;;;;2.90;2.80;;;25.00;64.20;;;;;;5068369;28;43820;-72
2022/08/16 11:39:26;;;;;;;2.83;2.73;;;25.00;64.10;;;;;;5068447;28;44039;-72
2022/08/16 11:41:55;;;;;;;3.13;2.93;;;25.00;64.00;;;;;;5067657;28;44051;-72
2022/08/16 11:44:24;;;;;;;3.23;2.80;;;25.00;65.00;;;;;;5068131;28;43957;-72
2022/08/16 11:47:12;;;;;;;3.37;3.17;;;25.00;65.10;;;;;;5067031;28;43908;-72
2022/08/16 11:49:41;;;;;;;3.20;3.10;;;25.10;64.80;;;;;;5067132;28;44012;-74
2022/08/16 11:52:09;;;;;;;2.73;2.70;;;25.20;64.30;;;;;;5068358;28;44052;-73
2022/08/16 11:54:37;;;;;;;2.97;2.87;;;25.30;64.80;;;;;;5067777;28;43790;-74
2022/08/16 11:57:05;;;;;;;2.90;2.80;;;25.30;63.90;;;;;;5068029;28;43871;-72
2022/08/16 11:59:36;;;;;;;3.00;2.90;;;25.30;63.50;;;;;;5068249;28;43427;-72
2022/08/16 12:02:07;;;;;;;2.73;2.63;;;25.20;64.10;;;;;;5068116;28;43943;-73
2022/08/16 12:04:56;;;;;;;2.77;2.57;;;25.20;64.30;;;;;;5067736;28;44011;-74
2022/08/16 12:07:24;;;;;;;3.10;3.00;;;25.10;63.90;;;;;;5067522;28;43977;-73
2022/08/16 12:09:52;;;;;;;3.03;2.77;;;25.10;63.80;;;;;;5066456;28;44005;-73
2022/08/16 12:12:20;;;;;;;3.00;2.80;;;25.10;64.40;;;;;;5067566;28;44007;-73
2022/08/16 12:14:50;;;;;;;2.70;2.70;;;25.10;64.80;;;;;;5067670;28;44066;-74
2022/08/16 12:17:27;;;;;;;2.80;2.60;;;25.00;64.40;;;;;;5065954;28;44063;-73
2022/08/16 12:20:00;;;;;;;3.20;2.60;;;25.00;64.20;;;;;;5066517;28;43563;-73
2022/08/16 12:22:28;;;;;;;2.50;2.50;;;25.00;64.80;;;;;;5052399;28;46119;-74
2022/08/16 12:24:56;;;;;;;2.70;2.60;;;25.00;65.20;;;;;;5060877;28;43886;-72
2022/08/16 12:27:24;;;;;;;2.67;2.60;;;25.00;64.70;;;;;;5063207;28;43382;-73
2022/08/16 12:29:53;;;;;;;2.50;2.50;;;25.00;64.50;;;;;;5061467;28;44071;-72
2022/08/16 12:32:21;;;;;;;2.83;2.73;;;25.00;65.00;;;;;;5061350;28;44034;-73
2022/08/16 12:35:11;;;;;;;2.60;2.50;;;25.00;65.40;;;;;;5062416;28;46128;-72
2022/08/16 12:37:40;;;;;;;2.40;2.40;;;25.00;65.30;;;;;;5064937;28;43941;-74
2022/08/16 12:40:10;;;;;;;2.30;2.30;;;25.10;64.80;;;;;;5067943;28;43899;-73
2022/08/16 12:42:52;;;;;;;2.53;2.53;;;25.20;64.40;;;;;;5067231;28;44086;-73
2022/08/16 12:45:21;;;;;;;2.50;2.33;;;25.30;64.10;;;;;;5066945;28;43988;-72
2022/08/16 12:50:56;;;;;;;2.37;2.37;;;25.20;64.00;;;;;;5067552;28;44077;-72
2022/08/16 12:53:28;;;;;;;2.87;2.77;;;25.10;64.30;;;;;;5066921;28;43615;-72
2022/08/16 12:55:59;;;;;;;2.47;2.40;;;25.10;64.70;;;;;;5067144;28;43943;-74
2022/08/16 12:58:28;;;;;;;2.50;2.40;;;25.10;63.80;;;;;;5067023;28;43960;-73
2022/08/16 13:01:16;;;;;;;2.50;2.50;;;25.10;64.60;;;;;;5067559;28;43426;-73
2022/08/16 13:03:45;;;;;;;2.50;2.50;;;25.00;64.70;;;;;;5064975;28;45698;-71
2022/08/16 13:06:15;;;;;;;2.50;2.50;;;25.00;64.20;;;;;;5065238;28;45650;-72
2022/08/16 13:08:47;;;;;;;2.50;2.30;;;25.00;64.10;;;;;;5066734;28;43975;-73
2022/08/16 13:11:16;;;;;;;2.67;2.57;;;25.00;65.20;;;;;;5067072;28;43402;-73
2022/08/16 13:13:44;;;;;;;2.83;2.63;;;25.00;65.40;;;;;;5066484;28;43999;-72
2022/08/16 13:16:20;;;;;;;2.47;2.47;;;25.00;65.10;;;;;;5066665;28;43875;-73
2022/08/16 13:18:51;;;;;;;2.63;2.63;;;25.20;64.80;;;;;;5066879;28;44030;-74
2022/08/16 13:21:22;;;;;;;2.77;2.60;;;25.20;64.50;;;;;;5065664;28;43961;-73
2022/08/16 13:23:52;;;;;;;2.40;2.40;;;25.20;64.30;;;;;;5064894;28;43926;-74
2022/08/16 13:26:26;;;;;;;2.37;2.37;;;25.20;63.80;;;;;;5066425;28;43739;-74
2022/08/16 13:28:54;;;;;;;2.13;2.13;;;25.20;64.60;;;;;;5066540;28;43947;-72
2022/08/16 13:31:22;;;;;;;2.50;2.50;;;25.10;64.80;;;;;;5065570;28;43971;-73
2022/08/16 13:33:51;;;;;;;2.10;2.10;;;25.10;64.40;;;;;;5066476;28;44887;-73